< < Back
Terminal Aerodrome Forecast


Current Version              Previous Versions:   1  2  3  4  5  6  7  8  9  

Terminal Aerodrome Forecast

882
FTUS42 KJAX 302300
TAFSSI
TAF
KSSI 302320Z 3100/3124 03006KT P6SM VCSH SCT020 BKN120
     FM310800 35006KT P6SM FEW020 SCT250
     FM311500 33008KT P6SM FEW040=



Latest METAR

928
SAUS70 KWBC 310500 RRK
MTRSSI
METAR KSSI 310453Z AUTO 33003KT 10SM FEW045 17/16 A2990 RMK AO2 SLP124
T01720161 402440172


USA.gov is the U.S. government's official web portal to all federal, state and local government web resources and services.